Time;durP1;ratioP1;P1;durP2;ratioP2;P2;SDS_P1;SDS_P2;PMS_P1;PMS_P2;Temp;Humidity;BMP_temperature;BMP_pressure;BME280_temperature;BME280_humidity;BME280_pressure;Samples;Min_cycle;Max_cycle;Signal;HPM_P1;HPM_P2
2021/05/30 00:01:19;;;;;;;8.60;5.50;;;;;;;9.34;76.67;102062.16;4977680;28;20554;-72
2021/05/30 00:03:45;;;;;;;8.73;6.17;;;;;;;9.32;77.45;102068.44;4977943;28;20200;-73
2021/05/30 00:06:10;;;;;;;10.90;5.97;;;;;;;9.24;77.33;102065.09;4994946;28;20255;-70
2021/05/30 00:08:35;;;;;;;6.67;5.30;;;;;;;9.42;76.34;102055.72;4977294;28;20677;-70
2021/05/30 00:11:01;;;;;;;10.03;6.63;;;;;;;9.25;77.96;102077.50;4977470;28;20197;-72
2021/05/30 00:13:26;;;;;;;13.20;6.83;;;;;;;9.19;77.34;102065.22;4977154;28;20174;-71
2021/05/30 00:15:51;;;;;;;9.50;6.27;;;;;;;9.03;78.65;102066.56;4977628;28;20197;-71
2021/05/30 00:18:17;;;;;;;11.37;6.97;;;;;;;8.81;79.18;102060.06;4977720;28;20216;-72
2021/05/30 00:20:42;;;;;;;9.13;6.40;;;;;;;8.73;79.75;102058.47;4977158;28;20178;-71
2021/05/30 00:23:07;;;;;;;9.77;6.53;;;;;;;8.66;79.92;102056.03;4961053;28;20235;-69
2021/05/30 00:25:33;;;;;;;8.20;6.47;;;;;;;8.71;79.38;102062.09;4960685;28;20603;-71
2021/05/30 00:27:58;;;;;;;10.33;6.37;;;;;;;8.63;80.12;102061.41;4961054;28;20174;-71
2021/05/30 00:30:23;;;;;;;11.43;7.43;;;;;;;8.41;80.74;102056.63;4993197;28;20248;-69
2021/05/30 00:32:49;;;;;;;10.97;7.40;;;;;;;8.29;81.15;102066.66;4976878;28;20187;-70
2021/05/30 00:35:14;;;;;;;10.17;7.33;;;;;;;8.22;81.61;102057.97;4976737;28;20217;-70
2021/05/30 00:37:39;;;;;;;13.63;9.50;;;;;;;8.01;82.93;102063.75;4960757;28;20201;-71
2021/05/30 00:40:05;;;;;;;8.93;6.90;;;;;;;7.79;83.33;102060.69;4976969;28;20188;-71
2021/05/30 00:42:31;;;;;;;14.23;8.60;;;;;;;7.67;84.69;102053.00;4976882;28;20215;-71
2021/05/30 00:44:56;;;;;;;7.57;5.80;;;;;;;7.75;82.91;102051.91;4977530;28;20768;-71
2021/05/30 00:47:21;;;;;;;8.40;5.97;;;;;;;7.70;82.74;102040.50;4977106;28;20173;-71
2021/05/30 00:49:46;;;;;;;12.77;7.57;;;;;;;7.86;83.22;102050.81;4960994;28;20177;-71
2021/05/30 00:52:12;;;;;;;8.53;6.70;;;;;;;7.87;82.43;102053.44;4977062;28;20192;-71
2021/05/30 00:54:38;;;;;;;9.67;6.03;;;;;;;7.95;82.08;102051.47;4976837;28;20770;-71
2021/05/30 00:57:05;;;;;;;8.53;6.67;;;;;;;7.91;83.88;102048.94;4977068;28;20272;-71
2021/05/30 00:59:30;;;;;;;9.40;6.67;;;;;;;8.00;83.20;102048.72;4960946;28;20279;-71
2021/05/30 01:01:56;;;;;;;12.93;7.17;;;;;;;8.03;82.86;102045.97;4960982;28;20184;-71
2021/05/30 01:04:21;;;;;;;10.70;6.87;;;;;;;7.98;82.97;102051.41;4977315;28;20282;-71
2021/05/30 01:06:46;;;;;;;9.23;6.10;;;;;;;7.97;82.58;102048.78;4978665;28;20227;-70
2021/05/30 01:09:12;;;;;;;10.60;6.60;;;;;;;8.01;82.86;102047.81;4962004;28;20196;-70
2021/05/30 01:11:37;;;;;;;15.60;7.00;;;;;;;7.97;83.91;102046.13;4962077;28;20188;-70
2021/05/30 01:14:05;;;;;;;10.07;7.60;;;;;;;7.94;84.37;102046.22;4962452;28;20224;-70
2021/05/30 01:16:30;;;;;;;11.77;8.27;;;;;;;7.96;85.37;102047.91;4978891;28;20198;-71
2021/05/30 01:18:58;;;;;;;17.83;9.23;;;;;;;8.02;85.89;102046.91;4962215;28;20184;-71
2021/05/30 01:21:23;;;;;;;14.67;8.47;;;;;;;8.08;86.16;102052.94;4963397;28;20176;-70
2021/05/30 01:23:54;;;;;;;9.73;7.93;;;;;;;8.09;86.07;102054.69;4962867;28;20188;-71
2021/05/30 01:26:20;;;;;;;13.33;8.73;;;;;;;8.00;86.50;102054.03;4998175;28;20197;-71
2021/05/30 01:28:46;;;;;;;13.67;7.97;;;;;;;8.05;85.38;102055.66;4982484;28;20204;-72
2021/05/30 01:31:11;;;;;;;15.63;8.30;;;;;;;8.10;85.17;102059.09;4982113;28;20237;-71
2021/05/30 01:33:36;;;;;;;11.83;7.50;;;;;;;8.00;85.08;102059.34;4981676;28;20182;-72
2021/05/30 01:36:03;;;;;;;12.03;8.27;;;;;;;7.95;85.73;102042.63;5026047;23;20236;-66
2021/05/30 01:38:28;;;;;;;14.23;8.37;;;;;;;8.01;86.32;102058.44;5016365;28;20588;-66
2021/05/30 01:40:54;;;;;;;15.97;9.83;;;;;;;8.09;87.36;102056.47;5016384;28;20184;-67
2021/05/30 01:43:19;;;;;;;14.87;10.37;;;;;;;8.02;87.89;102047.78;5015946;28;20645;-67
2021/05/30 01:45:44;;;;;;;12.20;9.57;;;;;;;7.87;88.85;102047.25;5015919;28;20201;-66
2021/05/30 01:48:10;;;;;;;21.40;10.00;;;;;;;7.77;89.77;102052.75;4982015;28;20237;-66
2021/05/30 01:50:35;;;;;;;16.57;10.33;;;;;;;7.77;90.01;102054.53;5016055;28;20264;-66
2021/05/30 01:53:07;;;;;;;15.80;10.37;;;;;;;7.75;89.65;102059.88;5015893;28;20183;-66
2021/05/30 01:58:18;;;;;;;16.60;11.27;;;;;;;7.86;90.21;102061.47;5015850;28;20247;-66
2021/05/30 02:00:48;;;;;;;17.80;10.67;;;;;;;7.87;90.21;102057.88;4998418;28;20257;-66
2021/05/30 02:03:14;;;;;;;18.13;11.83;;;;;;;7.82;91.01;102058.88;4999366;28;20186;-66
2021/05/30 02:05:43;;;;;;;17.67;11.87;;;;;;;7.80;91.67;102057.13;4998258;28;20683;-65
2021/05/30 02:08:09;;;;;;;19.43;11.70;;;;;;;7.80;91.05;102065.09;5015644;28;20630;-66
2021/05/30 02:10:35;;;;;;;19.70;12.83;;;;;;;7.71;92.31;102062.66;5015482;28;20255;-65
2021/05/30 02:13:02;;;;;;;19.40;12.93;;;;;;;7.68;93.39;102068.91;4998222;28;20188;-66
2021/05/30 02:15:27;;;;;;;21.07;13.03;;;;;;;7.88;92.89;102070.28;4998249;28;20196;-66
2021/05/30 02:17:52;;;;;;;21.67;13.67;;;;;;;7.78;93.00;102070.44;5015583;28;20220;-66
2021/05/30 02:20:30;;;;;;;19.00;12.70;;;;;;;7.73;93.08;102072.34;4998033;28;20184;-66
2021/05/30 02:22:55;;;;;;;20.03;12.57;;;;;;;7.71;93.23;102071.50;5015817;28;20545;-66
2021/05/30 02:25:20;;;;;;;18.77;12.33;;;;;;;7.71;92.75;102071.50;5015415;28;20203;-66
2021/05/30 02:27:45;;;;;;;16.90;10.63;;;;;;;7.57;92.47;102073.56;5015425;28;20229;-65
2021/05/30 02:30:11;;;;;;;19.93;11.63;;;;;;;7.61;92.44;102072.59;4998088;28;20181;-65
2021/05/30 02:32:36;;;;;;;14.47;10.50;;;;;;;7.41;92.07;102078.31;5015004;28;20633;-65
2021/05/30 02:35:02;;;;;;;17.53;11.60;;;;;;;7.38;92.67;102072.19;5014898;28;20216;-65
2021/05/30 02:37:27;;;;;;;17.93;12.60;;;;;;;7.47;93.63;102075.56;5014682;28;20592;-66
2021/05/30 02:39:52;;;;;;;17.33;12.40;;;;;;;7.46;93.52;102075.59;4997817;28;20180;-66
2021/05/30 02:42:18;;;;;;;15.30;11.07;;;;;;;7.33;91.70;102074.06;5015262;28;20580;-66
2021/05/30 02:44:43;;;;;;;16.73;11.20;;;;;;;7.26;91.88;102075.97;5014875;28;20687;-66
2021/05/30 02:47:08;;;;;;;15.80;10.57;;;;;;;7.08;92.52;102071.03;5014789;28;20166;-66
2021/05/30 02:49:34;;;;;;;15.33;11.07;;;;;;;7.19;92.40;102077.88;5014777;28;20200;-66
2021/05/30 02:52:00;;;;;;;17.70;12.47;;;;;;;7.08;93.49;102068.38;5014787;28;20177;-66
2021/05/30 02:54:26;;;;;;;19.97;12.03;;;;;;;7.06;94.15;102071.06;4980765;28;20184;-66
2021/05/30 02:56:51;;;;;;;18.63;13.27;;;;;;;7.03;95.19;102076.41;5014832;28;20211;-66
2021/05/30 02:59:17;;;;;;;17.43;12.00;;;;;;;7.01;95.25;102079.97;5014726;28;20177;-66
2021/05/30 03:01:42;;;;;;;16.67;11.10;;;;;;;7.02;95.68;102085.25;5014652;28;20180;-66
2021/05/30 03:04:07;;;;;;;19.33;12.70;;;;;;;7.06;95.72;102086.06;4997175;28;20173;-66
2021/05/30 03:06:33;;;;;;;22.37;13.33;;;;;;;7.10;96.15;102086.03;5014864;28;20276;-66
2021/05/30 03:08:59;;;;;;;19.97;12.17;;;;;;;7.19;95.87;102085.84;5015807;28;20231;-66
2021/05/30 03:11:25;;;;;;;17.23;12.20;;;;;;;7.19;95.33;102085.84;4998330;28;20191;-66
2021/05/30 03:13:50;;;;;;;17.30;12.20;;;;;;;7.20;96.05;102087.59;4997846;28;20182;-66
2021/05/30 03:16:15;;;;;;;21.80;12.87;;;;;;;7.20;95.69;102086.72;5014767;28;20208;-65
2021/05/30 03:18:41;;;;;;;17.77;12.47;;;;;;;7.28;95.98;102086.56;4996707;28;20190;-65
2021/05/30 03:21:06;;;;;;;16.53;12.37;;;;;;;7.31;95.62;102084.72;5014312;28;20196;-65
2021/05/30 03:23:31;;;;;;;22.93;13.03;;;;;;;7.30;95.27;102085.63;4996595;28;20660;-66
2021/05/30 03:25:57;;;;;;;15.50;11.10;;;;;;;7.40;95.25;102083.66;5014507;28;20199;-65
2021/05/30 03:28:22;;;;;;;17.00;11.50;;;;;;;7.50;95.10;102082.59;5014235;28;20601;-66
2021/05/30 03:30:47;;;;;;;16.37;11.70;;;;;;;7.63;94.18;102086.72;5014092;28;20172;-65
2021/05/30 03:33:13;;;;;;;22.40;11.43;;;;;;;7.73;93.61;102079.44;5013977;28;20173;-65
2021/05/30 03:35:38;;;;;;;17.43;10.83;;;;;;;7.78;92.81;102081.06;5013785;28;20258;-65
2021/05/30 03:38:07;;;;;;;16.70;11.33;;;;;;;7.93;92.19;102090.53;4996399;28;20216;-67
2021/05/30 03:43:10;;;;;;;19.00;11.03;;;;;;;8.00;90.77;102083.28;5013952;28;20637;-65
2021/05/30 03:45:35;;;;;;;15.40;11.20;;;;;;;8.08;90.80;102081.31;5014097;28;20193;-65
2021/05/30 03:48:00;;;;;;;19.10;11.03;;;;;;;8.18;89.63;102080.22;5013139;28;20177;-66
2021/05/30 03:50:26;;;;;;;14.57;10.43;;;;;;;8.25;88.83;102076.50;5015203;28;20206;-65
2021/05/30 03:52:51;;;;;;;21.70;10.67;;;;;;;8.14;89.24;102079.38;5014380;28;20553;-65
2021/05/30 03:55:16;;;;;;;16.57;10.57;;;;;;;8.13;89.37;102077.63;5013851;28;20199;-65
2021/05/30 03:57:42;;;;;;;14.30;9.97;;;;;;;8.06;89.30;102075.16;5013476;28;20188;-67
2021/05/30 04:00:10;;;;;;;16.70;10.77;;;;;;;8.03;89.73;102077.91;5013765;28;20231;-66
2021/05/30 04:02:36;;;;;;;16.13;11.23;;;;;;;8.07;89.58;102075.13;5013426;28;20267;-65
2021/05/30 04:05:01;;;;;;;13.93;10.03;;;;;;;8.30;87.47;102084.38;4996224;28;20199;-66
2021/05/30 04:07:27;;;;;;;16.90;10.90;;;;;;;8.29;87.73;102086.16;5013424;28;20642;-67
2021/05/30 04:09:53;;;;;;;14.40;10.40;;;;;;;8.34;87.52;102084.28;4996067;28;20692;-65
2021/05/30 04:12:18;;;;;;;13.07;9.97;;;;;;;8.34;86.92;102084.28;5013385;28;20173;-65
2021/05/30 04:14:43;;;;;;;15.20;9.80;;;;;;;8.50;86.15;102083.91;5013220;28;20224;-65
2021/05/30 04:17:08;;;;;;;14.90;9.33;;;;;;;8.49;85.56;102080.38;5013155;28;20189;-65
2021/05/30 04:19:34;;;;;;;14.60;9.47;;;;;;;8.58;85.11;102080.16;5013518;28;20222;-66
2021/05/30 04:22:00;;;;;;;11.83;8.40;;;;;;;8.67;83.24;102085.25;5013438;28;20203;-66
2021/05/30 04:24:25;;;;;;;13.53;7.60;;;;;;;8.87;82.17;102081.19;4996094;28;20211;-66
2021/05/30 04:26:50;;;;;;;12.73;8.47;;;;;;;8.93;82.15;102081.94;5013478;28;20176;-66
2021/05/30 04:29:16;;;;;;;14.10;8.13;;;;;;;8.91;82.37;102083.72;5013172;28;20223;-65
2021/05/30 04:31:41;;;;;;;13.33;8.07;;;;;;;8.97;80.59;102083.59;5013030;28;20177;-66
2021/05/30 04:34:06;;;;;;;12.30;7.70;;;;;;;9.11;80.00;102079.69;5013344;28;20177;-65
2021/05/30 04:36:32;;;;;;;11.77;7.27;;;;;;;9.12;80.34;102082.31;5012779;28;20207;-65
2021/05/30 04:38:57;;;;;;;9.40;6.57;;;;;;;9.25;79.28;102088.16;4995604;28;20172;-66
2021/05/30 04:41:22;;;;;;;8.50;5.70;;;;;;;9.37;78.80;102094.03;5013050;28;20172;-66
2021/05/30 04:43:48;;;;;;;10.30;6.33;;;;;;;9.62;75.41;102088.88;5013244;28;20522;-66
2021/05/30 04:46:13;;;;;;;7.63;6.13;;;;;;;9.74;75.07;102093.00;5013356;28;20193;-66
2021/05/30 04:48:39;;;;;;;8.63;6.10;;;;;;;9.78;75.21;102093.78;4995925;28;20185;-66
2021/05/30 04:51:12;;;;;;;10.30;6.53;;;;;;;9.70;74.93;102091.34;5012964;28;20208;-66
2021/05/30 04:53:45;;;;;;;13.47;7.20;;;;;;;9.55;75.45;102094.41;4995462;28;20181;-66
2021/05/30 04:56:13;;;;;;;10.03;7.20;;;;;;;9.57;77.20;102098.78;4995389;28;20228;-66
2021/05/30 04:58:38;;;;;;;11.37;6.90;;;;;;;9.66;77.45;102098.56;5012961;28;20188;-66
2021/05/30 05:01:05;;;;;;;9.00;6.83;;;;;;;9.71;76.60;102099.28;5017310;28;20197;-66
2021/05/30 05:03:32;;;;;;;9.20;6.67;;;;;;;9.76;77.34;102101.81;4999622;28;20176;-67
2021/05/30 05:05:57;;;;;;;13.50;7.07;;;;;;;9.90;76.99;102099.59;5017317;28;20192;-67
2021/05/30 05:08:23;;;;;;;9.40;6.50;;;;;;;10.07;75.47;102101.78;4999757;28;20176;-67
2021/05/30 05:10:49;;;;;;;13.10;6.53;;;;;;;10.18;75.03;102104.09;5017088;28;20270;-67
2021/05/30 05:13:15;;;;;;;9.07;6.53;;;;;;;10.43;74.69;102098.91;5017231;28;20192;-66
2021/05/30 05:15:44;;;;;;;9.20;6.03;;;;;;;10.53;73.74;102108.34;5016988;28;20213;-66
2021/05/30 05:18:13;;;;;;;10.60;7.83;;;;;;;10.76;76.96;102112.91;5016792;28;20207;-66
2021/05/30 05:20:39;;;;;;;8.43;7.30;;;;;;;10.90;76.26;102114.22;5016884;28;20189;-65
2021/05/30 05:23:04;;;;;;;11.63;7.07;;;;;;;10.79;76.30;102113.72;4999072;28;20595;-67
2021/05/30 05:25:32;;;;;;;8.93;6.80;;;;;;;10.72;76.60;102109.47;5016983;28;20656;-67
2021/05/30 05:27:57;;;;;;;9.57;6.73;;;;;;;10.60;76.94;102113.44;4999625;28;20243;-67
2021/05/30 05:30:23;;;;;;;6.60;5.20;;;;;;;10.70;77.05;102121.13;4998923;28;20614;-67
2021/05/30 05:32:48;;;;;;;7.90;6.57;;;;;;;10.74;76.22;102120.97;5016465;28;20192;-66
2021/05/30 05:35:14;;;;;;;7.77;5.90;;;;;;;10.91;75.18;102123.09;4998579;28;20220;-66
2021/05/30 05:37:41;;;;;;;8.87;5.73;;;;;;;10.95;74.81;102114.94;4998519;28;20201;-67
2021/05/30 05:40:06;;;;;;;9.50;6.30;;;;;;;11.11;72.80;102114.38;5016618;28;20660;-66
2021/05/30 05:42:35;;;;;;;8.73;5.57;;;;;;;11.18;72.64;102122.16;5016672;28;20193;-67
2021/05/30 05:45:00;;;;;;;10.30;5.33;;;;;;;11.37;71.36;102118.81;5016430;28;20188;-66
2021/05/30 05:47:25;;;;;;;6.80;5.17;;;;;;;11.52;70.29;102124.50;5016776;28;20522;-67
2021/05/30 05:49:50;;;;;;;9.23;5.73;;;;;;;11.54;71.38;102124.44;5017061;28;20196;-68
2021/05/30 05:52:16;;;;;;;8.47;6.00;;;;;;;11.50;72.27;102118.31;5016382;28;20177;-66
2021/05/30 05:54:41;;;;;;;9.40;5.80;;;;;;;11.69;71.77;102128.34;5016567;28;20204;-67
2021/05/30 05:57:06;;;;;;;7.50;6.33;;;;;;;11.76;71.15;102124.50;5016600;28;20196;-66
2021/05/30 05:59:32;;;;;;;11.40;5.90;;;;;;;11.88;71.72;102124.06;5016926;28;20185;-67
2021/05/30 06:01:57;;;;;;;9.47;5.60;;;;;;;11.95;71.22;102124.75;5018410;28;20703;-66
2021/05/30 06:04:22;;;;;;;10.73;5.70;;;;;;;12.02;71.85;102121.75;5016518;28;20183;-66
2021/05/30 06:06:48;;;;;;;7.27;5.23;;;;;;;12.11;72.07;102125.88;5016103;28;20181;-66
2021/05/30 06:09:13;;;;;;;11.03;5.40;;;;;;;12.02;72.23;102124.44;4998494;28;20180;-66
2021/05/30 06:11:38;;;;;;;6.83;4.20;;;;;;;12.17;71.61;102117.59;5015375;28;20533;-66
2021/05/30 06:14:09;;;;;;;8.30;4.83;;;;;;;12.35;71.51;102124.06;4982645;28;20173;-66
2021/05/30 06:16:41;;;;;;;7.63;4.00;;;;;;;12.51;69.10;102119.81;5015871;28;20201;-66
2021/05/30 06:19:06;;;;;;;5.77;4.00;;;;;;;12.60;68.82;102123.91;5017777;28;20592;-67
2021/05/30 06:21:32;;;;;;;7.63;3.60;;;;;;;12.70;68.29;102125.31;5015939;28;20169;-67
2021/05/30 06:23:58;;;;;;;7.07;4.43;;;;;;;12.86;64.61;102126.41;5016076;28;20173;-67
2021/05/30 06:26:23;;;;;;;4.90;3.03;;;;;;;12.92;62.69;102128.81;4997784;28;20195;-67
2021/05/30 06:28:48;;;;;;;7.83;3.37;;;;;;;13.13;60.71;102129.72;4998144;28;20260;-67
2021/05/30 06:31:14;;;;;;;6.77;3.50;;;;;;;13.04;61.96;102135.50;4998259;28;20179;-67
2021/05/30 06:33:39;;;;;;;5.60;2.80;;;;;;;13.11;61.53;102128.91;5016174;28;20180;-67
2021/05/30 06:36:05;;;;;;;5.63;2.73;;;;;;;13.17;59.98;102133.16;5015486;28;20669;-67
2021/05/30 06:38:30;;;;;;;6.77;2.97;;;;;;;13.31;56.94;102120.91;5015112;28;20676;-66
2021/05/30 06:40:56;;;;;;;5.27;2.60;;;;;;;13.33;57.61;102131.56;4997762;28;20216;-67
2021/05/30 06:43:21;;;;;;;3.27;2.40;;;;;;;13.50;53.91;102130.84;5015278;28;20279;-67
2021/05/30 06:45:46;;;;;;;4.13;2.40;;;;;;;13.51;53.24;102127.22;5015288;28;20197;-67
2021/05/30 06:48:13;;;;;;;5.90;2.60;;;;;;;13.45;52.45;102120.31;5015248;28;20652;-67
2021/05/30 06:50:38;;;;;;;6.00;2.17;;;;;;;13.35;52.27;102133.22;5015753;28;20176;-67
2021/05/30 06:53:04;;;;;;;3.13;2.20;;;;;;;13.42;52.16;102134.72;4999193;28;20541;-68
2021/05/30 06:55:29;;;;;;;8.47;2.50;;;;;;;13.51;51.58;102132.56;5015914;28;20276;-67
2021/05/30 06:57:54;;;;;;;5.57;2.67;;;;;;;13.63;50.95;102138.25;5014953;28;20197;-66
2021/05/30 07:00:20;;;;;;;4.40;2.70;;;;;;;13.73;50.43;102130.66;5015380;28;20243;-67
2021/05/30 07:02:46;;;;;;;7.37;2.50;;;;;;;13.68;49.85;102133.53;5015180;28;20637;-67
2021/05/30 07:05:12;;;;;;;4.23;2.20;;;;;;;13.81;50.01;102133.00;5015052;28;20188;-66
2021/05/30 07:07:37;;;;;;;5.10;2.47;;;;;;;13.95;50.51;102133.22;5015190;28;20188;-69
2021/05/30 07:10:04;;;;;;;4.33;2.10;;;;;;;13.92;49.98;102130.69;5015493;28;20173;-67
2021/05/30 07:12:29;;;;;;;4.40;2.10;;;;;;;13.80;48.53;102134.81;5014997;28;20557;-67
2021/05/30 07:14:55;;;;;;;5.03;2.37;;;;;;;13.88;49.78;102138.00;5014773;28;20213;-66
2021/05/30 07:17:20;;;;;;;4.40;2.00;;;;;;;13.89;48.46;102137.06;5015161;28;20193;-67
2021/05/30 07:19:50;;;;;;;3.30;2.23;;;;;;;13.76;49.87;102128.72;5015187;28;20173;-68
2021/05/30 07:22:15;;;;;;;4.70;2.47;;;;;;;13.87;50.08;102132.72;4998000;28;20169;-67
2021/05/30 07:24:41;;;;;;;3.13;1.90;;;;;;;13.89;49.95;102131.72;4997494;28;20250;-66
2021/05/30 07:27:06;;;;;;;3.47;2.23;;;;;;;14.04;50.15;102136.34;4981475;28;20173;-65
2021/05/30 07:29:32;;;;;;;6.03;2.43;;;;;;;13.98;51.16;102139.31;5015388;28;20212;-66
2021/05/30 07:31:57;;;;;;;4.40;2.40;;;;;;;14.06;50.83;102138.97;5014567;28;20243;-66
2021/05/30 07:34:22;;;;;;;4.93;2.40;;;;;;;13.94;50.61;102136.84;5014569;28;20633;-66
2021/05/30 07:36:48;;;;;;;5.00;2.30;;;;;;;14.11;50.61;102130.69;5038804;22;20231;-70
2021/05/30 07:39:13;;;;;;;3.90;2.37;;;;;;;14.17;51.36;102139.34;4998074;28;20177;-72
2021/05/30 07:41:38;;;;;;;3.83;2.40;;;;;;;14.25;52.17;102144.34;4981449;28;20173;-73
2021/05/30 07:44:04;;;;;;;5.83;2.70;;;;;;;14.54;51.03;102141.19;4998210;28;20173;-72
2021/05/30 07:46:29;;;;;;;4.60;2.30;;;;;;;14.56;50.79;102139.28;4981651;28;20794;-71
2021/05/30 07:48:54;;;;;;;8.83;2.60;;;;;;;14.63;50.13;102143.41;4997920;28;20641;-72
2021/05/30 07:51:20;;;;;;;6.50;2.93;;;;;;;14.66;49.34;102140.56;4998461;28;20227;-71
2021/05/30 07:53:45;;;;;;;5.13;2.37;;;;;;;14.61;49.63;102147.97;4998801;28;20216;-71
2021/05/30 07:56:11;;;;;;;5.23;2.47;;;;;;;14.84;49.16;102152.19;4998110;28;20585;-72
2021/05/30 07:58:37;;;;;;;4.23;2.53;;;;;;;14.92;49.67;102150.03;4998363;28;20200;-72
2021/05/30 08:01:02;;;;;;;4.80;3.00;;;;;;;14.94;49.29;102149.94;4997882;28;20646;-71
2021/05/30 08:03:28;;;;;;;5.27;2.67;;;;;;;14.95;49.82;102147.19;4997487;28;20660;-71
2021/05/30 08:05:54;;;;;;;5.03;3.03;;;;;;;14.99;49.86;102146.06;4997346;28;20266;-72
2021/05/30 08:08:21;;;;;;;4.60;2.80;;;;;;;15.09;49.73;102148.28;4981349;28;20667;-72
2021/05/30 08:10:47;;;;;;;6.20;2.90;;;;;;;15.16;49.32;102150.56;4997272;28;20208;-73
2021/05/30 08:13:14;;;;;;;6.37;3.90;;;;;;;15.01;50.00;102151.38;4997691;28;20592;-71
2021/05/30 08:15:39;;;;;;;7.30;3.20;;;;;;;14.98;50.71;102147.03;4981034;28;20197;-71
2021/05/30 08:18:05;;;;;;;5.17;3.40;;;;;;;14.98;51.30;102147.03;4998103;28;20211;-72
2021/05/30 08:20:30;;;;;;;7.03;3.17;;;;;;;15.20;50.93;102143.22;4999114;28;20185;-72
2021/05/30 08:22:55;;;;;;;8.10;4.10;;;;;;;15.21;50.28;102153.03;4999822;28;20565;-72
2021/05/30 08:25:21;;;;;;;8.70;3.30;;;;;;;15.36;51.02;102151.38;4983057;28;20232;-71
2021/05/30 08:27:47;;;;;;;5.30;3.80;;;;;;;15.14;51.48;102152.47;4981880;28;20211;-72
2021/05/30 08:30:13;;;;;;;7.37;3.17;;;;;;;15.19;51.65;102152.25;4997800;28;20180;-72
2021/05/30 08:32:39;;;;;;;7.80;3.03;;;;;;;15.11;51.59;102152.63;4997219;28;20185;-71
2021/05/30 08:35:06;;;;;;;5.60;3.43;;;;;;;15.18;51.36;102147.81;4997218;28;20184;-72
2021/05/30 08:37:31;;;;;;;6.27;3.30;;;;;;;14.99;50.87;102156.81;4997235;28;20189;-72
2021/05/30 08:39:57;;;;;;;6.97;3.30;;;;;;;15.29;50.68;102158.91;5014611;28;20235;-71
2021/05/30 08:42:22;;;;;;;6.97;3.30;;;;;;;15.40;50.80;102155.66;4981122;28;20204;-71
2021/05/30 08:44:52;;;;;;;6.33;3.00;;;;;;;15.54;49.41;102155.78;4997561;28;20259;-72
2021/05/30 08:47:19;;;;;;;5.23;2.97;;;;;;;15.67;49.05;102162.31;4981328;28;20188;-71
2021/05/30 08:49:44;;;;;;;4.93;3.23;;;;;;;15.71;49.08;102163.88;4981097;28;20208;-71
2021/05/30 08:52:09;;;;;;;6.57;2.63;;;;;;;15.49;48.07;102157.84;4997679;28;20177;-72
2021/05/30 08:54:35;;;;;;;6.03;2.60;;;;;;;15.72;47.35;102159.38;4981313;28;20541;-72
2021/05/30 08:57:00;;;;;;;3.30;2.00;;;;;;;15.94;46.14;102162.63;4981178;28;20673;-72
2021/05/30 08:59:32;;;;;;;4.10;2.13;;;;;;;15.90;45.68;102159.25;5015138;28;20180;-72
2021/05/30 09:02:10;;;;;;;6.33;2.53;;;;;;;15.76;46.21;102155.56;4998476;28;20153;-71
2021/05/30 09:04:56;;;;;;;5.63;1.97;;;;;;;15.93;44.51;102147.44;4981550;28;20219;-71
2021/05/30 09:07:42;;;;;;;5.40;2.30;;;;;;;15.76;43.27;102150.19;4998300;28;20173;-71
2021/05/30 09:10:13;;;;;;;5.10;2.13;;;;;;;15.69;44.67;102152.34;4997446;28;20233;-72
2021/05/30 09:12:39;;;;;;;5.60;1.93;;;;;;;15.59;42.79;102151.06;4997854;28;20171;-72
2021/05/30 09:15:11;;;;;;;3.57;1.80;;;;;;;15.77;43.54;102146.53;4981153;28;20293;-73
2021/05/30 09:17:36;;;;;;;5.77;2.17;;;;;;;15.80;43.21;102151.75;4997937;28;20193;-71
2021/05/30 09:20:06;;;;;;;3.50;2.17;;;;;;;16.03;43.44;102146.00;4997799;28;20181;-74
2021/05/30 09:22:33;;;;;;;5.33;2.10;;;;;;;15.84;44.08;102145.25;4984375;28;20157;-72
2021/05/30 09:25:12;;;;;;;4.07;1.80;;;;;;;16.02;43.89;102149.63;4985384;28;20181;-72
2021/05/30 09:27:47;;;;;;;6.07;1.80;;;;;;;16.23;43.19;102150.25;4984473;28;20169;-73
2021/05/30 09:30:19;;;;;;;3.57;2.10;;;;;;;16.22;41.22;102145.81;5015757;28;20529;-72
2021/05/30 09:32:58;;;;;;;4.60;2.23;;;;;;;16.50;41.32;102139.75;4996321;28;20645;-73
2021/05/30 09:35:26;;;;;;;4.10;1.90;;;;;;;16.34;41.08;102147.81;4996955;28;20242;-71
2021/05/30 09:38:03;;;;;;;5.03;2.00;;;;;;;16.53;40.54;102143.16;4981568;28;20253;-73
2021/05/30 09:40:39;;;;;;;7.17;1.93;;;;;;;16.03;41.98;102143.31;4997814;28;20177;-72
2021/05/30 09:43:10;;;;;;;3.10;1.53;;;;;;;16.35;42.00;102132.53;4997253;28;20165;-71
2021/05/30 09:45:37;;;;;;;5.13;1.80;;;;;;;16.52;40.51;102136.03;5013373;28;20192;-72
2021/05/30 09:48:03;;;;;;;4.80;1.80;;;;;;;16.57;41.69;102135.75;4998772;28;20649;-72
2021/05/30 09:50:32;;;;;;;4.80;2.10;;;;;;;16.66;40.74;102132.56;4983031;28;20172;-71
2021/05/30 09:52:59;;;;;;;3.90;1.90;;;;;;;16.66;41.13;102132.56;4982757;28;20172;-72
2021/05/30 09:55:27;;;;;;;6.90;2.40;;;;;;;16.62;41.94;102133.66;4999034;28;20193;-71
2021/05/30 09:58:15;;;;;;;5.83;2.07;;;;;;;16.87;40.53;102131.31;4982490;28;20193;-71
2021/05/30 10:00:56;;;;;;;3.77;1.97;;;;;;;16.55;41.72;102133.16;5017048;28;20205;-72
2021/05/30 10:03:22;;;;;;;2.43;1.70;;;;;;;16.78;41.67;102137.25;5017067;28;20154;-71
2021/05/30 10:05:47;;;;;;;6.57;1.70;;;;;;;16.94;40.56;102148.00;4999487;28;20207;-72
2021/05/30 10:08:14;;;;;;;2.93;1.60;;;;;;;16.90;41.48;102138.34;4982617;28;20177;-72
2021/05/30 10:10:40;;;;;;;4.00;1.70;;;;;;;17.12;40.94;102146.06;4983104;28;20180;-72
2021/05/30 10:13:05;;;;;;;9.37;2.00;;;;;;;17.18;40.26;102143.84;4998866;28;20235;-71
2021/05/30 10:15:30;;;;;;;6.13;1.73;;;;;;;16.94;38.91;102148.00;4998788;28;20267;-72
2021/05/30 10:18:34;;;;;;;3.83;1.60;;;;;;;17.18;38.78;102146.56;4998546;28;20542;-71
2021/05/30 10:20:59;;;;;;;2.50;1.63;;;;;;;17.02;39.24;102143.00;5015999;28;20176;-71
2021/05/30 10:23:25;;;;;;;5.53;1.90;;;;;;;17.52;37.41;102149.91;4999599;28;20244;-71
2021/05/30 10:25:50;;;;;;;4.60;1.77;;;;;;;17.74;37.37;102147.63;5000913;28;20203;-71
2021/05/30 10:28:17;;;;;;;3.20;1.50;;;;;;;17.61;38.64;102143.06;4984497;28;20173;-71
2021/05/30 10:30:49;;;;;;;4.37;2.03;;;;;;;17.46;39.30;102147.56;4999021;28;20192;-71
2021/05/30 10:33:23;;;;;;;2.23;1.40;;;;;;;18.08;38.13;102149.09;4982366;28;20204;-71
2021/05/30 10:35:49;;;;;;;4.10;1.73;;;;;;;18.31;37.77;102152.16;5015631;28;20770;-71
2021/05/30 10:38:38;;;;;;;4.87;1.70;;;;;;;18.25;39.03;102142.63;4999094;28;20193;-72
2021/05/30 10:41:17;;;;;;;2.60;1.40;;;;;;;18.03;38.74;102134.13;4982486;28;20180;-72
2021/05/30 10:43:44;;;;;;;3.00;1.70;;;;;;;18.49;36.78;102140.13;4997898;28;20173;-71
2021/05/30 10:46:09;;;;;;;3.60;1.70;;;;;;;18.27;38.02;102142.53;4998462;28;20271;-71
2021/05/30 10:48:36;;;;;;;3.27;1.40;;;;;;;18.28;38.10;102153.22;4998292;28;20268;-71
2021/05/30 10:53:51;;;;;;;4.43;1.40;;;;;;;18.68;35.95;102142.53;4999040;28;20172;-71
2021/05/30 10:56:31;;;;;;;3.00;1.70;;;;;;;18.43;39.24;102145.94;4982845;28;20196;-71
2021/05/30 10:59:06;;;;;;;3.83;1.60;;;;;;;18.92;36.21;102143.59;5003045;28;20167;-71
2021/05/30 11:01:34;;;;;;;4.57;1.80;;;;;;;19.87;33.83;102147.88;4999323;28;20340;-72
2021/05/30 11:04:31;;;;;;;4.00;1.63;;;;;;;22.32;30.04;102133.63;5020869;28;20173;-72
2021/05/30 11:06:57;;;;;;;3.67;1.53;;;;;;;23.38;28.50;102137.31;5003846;28;20208;-72
2021/05/30 11:09:23;;;;;;;2.53;1.33;;;;;;;23.83;26.54;102143.41;5019208;28;20601;-71
2021/05/30 11:12:21;;;;;;;2.63;1.40;;;;;;;25.11;25.22;102139.88;4985844;28;20181;-71
2021/05/30 11:15:08;;;;;;;3.17;1.30;;;;;;;27.00;22.41;102140.47;4986592;28;20651;-70
2021/05/30 11:17:35;;;;;;;11.73;1.40;;;;;;;27.57;22.63;102145.56;5018230;28;20192;-71
2021/05/30 11:20:00;;;;;;;2.58;1.13;;;;;;;28.15;22.13;102140.25;5001071;28;20220;-73
2021/05/30 11:22:25;;;;;;;2.67;1.40;;;;;;;28.30;21.24;102133.16;4999593;28;20169;-72
2021/05/30 11:24:51;;;;;;;5.25;2.05;;;;;;;25.88;22.97;102135.31;5000586;28;20177;-71
2021/05/30 11:27:16;;;;;;;2.70;1.25;;;;;;;27.45;21.92;102136.72;4997958;28;20169;-71
2021/05/30 11:29:41;;;;;;;3.85;1.40;;;;;;;28.05;21.21;102139.53;4998627;28;20169;-69
2021/05/30 11:32:07;;;;;;;3.72;1.85;;;;;;;26.65;23.34;102130.31;4999013;28;20288;-72